Rochester, NH (03839)

09:31 PM EDT die 20o September, anno 2017 (GMT -0400)
Gonic, NH | | Change Station

Elev 213 ft 43.25 °N, 70.99 °W | Updated 4 seconds ago

Partialiter Nubila
Partialiter Nubila
68.4 °F
Feels Like 68.4 °F
N
0.0
Ventus Variabilis Ventus from Inter Austrum et Eurum
Gusts 0.0 mph

Hodie
High -- | Low -- °F
--% Chance of Precip.
Yesterday
High -- | Low -- °F
Precip. -- in
Pressio 29.93 in
Visibilitas 10.0 milia passuum
Clouds Serena
Frigus in quo Ros apparet 67 °F
Umor 94%
Rainfall 0.00 in
Snow Depth Not available.
6:29 AM 6:44 PM
New, 1% visible
METAR KDAW 210051Z AUTO 35007KT 10SM CLR 21/17 A2994 RMK AO2 SLP133 T02110172
Pressio 29.93 in
Visibilitas 10.0 milia passuum
Clouds Serena
Frigus in quo Ros apparet 67 °F
Umor 94%
Rainfall 0.00 in
Snow Depth Not available.
6:29 AM 6:44 PM
New, 1% visible
METAR KDAW 210051Z AUTO 35007KT 10SM CLR 21/17 A2994 RMK AO2 SLP133 T02110172

Get Severe Weather Alerts

Thanks for signing up!

Be on the lookout for a verification email in your inbox.

You'll start receiving the daily forecast at 6 AM.

×

10-Day Weather Forecast

Almanac

Astronomy

Sep. 20, 2017 Rise Set
Actual Time
Civil Twilight
Nautical Twilight
Astronomical Twilight
Moon
Length Of Visible Light
Length of Day
Tomorrow will be .
, % of the Moon is Illuminated

Today's Extremes

State Highs State Lows

Community

WunderPhotos

Category 6

Welcome to Category 6. This is the collective home for Weather Underground's featured writeups by Dr. Jeff Masters (right), Bob Henson (left), Chris Burt, and other regular contributors.

Nearby

Air Quality

  Air Quality AQ Index Pollutant
Not available.

Snow Depth

Station Depth Elevation

Earthquake Activity

City Distance Mag. Time & Date
Minimum magnitude displayed is 2.5.

Coastal Water Temperatures

Locus Calor

Stations

Nearby Weather Stations

Station Location Temp Frigus Venti Frigus in quo Ros apparet Umor Ventus Precip. Elev Renovata Type
                   

Watches & Warnings

There are currently no watches in effect.